Time;durP1;ratioP1;P1;durP2;ratioP2;P2;SDS_P1;SDS_P2;PMS_P1;PMS_P2;Temp;Humidity;BMP_temperature;BMP_pressure;BME280_temperature;BME280_humidity;BME280_pressure;Samples;Min_cycle;Max_cycle;Signal;HPM_P1;HPM_P2
2022/12/07 00:01:12;;;;;;;20.77;11.13;;;;;;;4.48;76.04;94791.41;5031623;28;20034;-70
2022/12/07 00:03:38;;;;;;;21.73;12.88;;;;;;;4.53;75.94;94806.56;5015020;28;20041;-70
2022/12/07 00:06:05;;;;;;;24.75;14.00;;;;;;;4.58;75.59;94798.56;5014350;28;20046;-70
2022/12/07 00:08:31;;;;;;;26.83;17.38;;;;;;;4.59;75.15;94792.50;5014235;28;20033;-70
2022/12/07 00:11:10;;;;;;;29.10;16.73;;;;;;;4.57;75.41;94795.19;4997551;28;20033;-70
2022/12/07 00:13:36;;;;;;;24.85;14.32;;;;;;;4.61;75.06;94800.97;5015325;28;20396;-71
2022/12/07 00:16:03;;;;;;;23.15;13.43;;;;;;;4.61;75.03;94806.94;5030434;28;20461;-70
2022/12/07 00:18:28;;;;;;;21.77;13.68;;;;;;;4.55;75.06;94798.75;5031741;28;20044;-71
2022/12/07 00:21:02;;;;;;;24.42;12.40;;;;;;;4.44;74.82;94784.78;5013989;28;20484;-70
2022/12/07 00:23:27;;;;;;;21.73;12.77;;;;;;;4.48;74.78;94796.56;5030253;28;20029;-70
2022/12/07 00:25:53;;;;;;;24.25;14.07;;;;;;;4.45;74.73;94786.41;5030213;28;20420;-70
2022/12/07 00:28:18;;;;;;;22.85;13.55;;;;;;;4.38;74.84;94787.72;5031312;28;20021;-70
2022/12/07 00:30:44;;;;;;;18.50;10.48;;;;;;;4.42;74.59;94783.22;5029988;28;20411;-70
2022/12/07 00:33:09;;;;;;;15.90;9.07;;;;;;;4.18;74.62;94739.19;5031438;28;20411;-70
2022/12/07 00:35:35;;;;;;;15.50;8.73;;;;;;;4.46;74.58;94777.81;5033232;28;20041;-70
2022/12/07 00:38:00;;;;;;;11.43;7.32;;;;;;;4.41;74.76;94789.28;5050923;28;20028;-70
2022/12/07 00:40:25;;;;;;;11.80;7.28;;;;;;;4.27;74.78;94772.09;5050928;28;20029;-70
2022/12/07 00:42:51;;;;;;;10.50;6.55;;;;;;;4.28;74.73;94781.44;5050887;28;20028;-70
2022/12/07 00:45:16;;;;;;;13.20;7.10;;;;;;;4.25;74.81;94776.47;5049769;28;20048;-70
2022/12/07 00:47:42;;;;;;;11.38;7.15;;;;;;;4.04;75.05;94773.44;5051032;28;20661;-70
2022/12/07 00:50:08;;;;;;;18.35;9.07;;;;;;;4.15;75.18;94783.06;5049787;28;20036;-70
2022/12/07 00:52:33;;;;;;;31.77;17.08;;;;;;;3.77;76.01;94779.22;5050793;28;20491;-70
2022/12/07 00:54:59;;;;;;;31.65;18.85;;;;;;;3.85;76.76;94778.78;5049470;28;20049;-70
2022/12/07 00:57:24;;;;;;;48.28;25.05;;;;;;;3.81;76.94;94772.97;5050780;28;20051;-70
2022/12/07 00:59:49;;;;;;;39.60;21.13;;;;;;;3.97;76.85;94760.09;5050823;28;20044;-70
2022/12/07 01:02:15;;;;;;;38.33;20.08;;;;;;;3.93;76.78;94770.66;5049405;28;20036;-70
2022/12/07 01:04:40;;;;;;;35.60;18.42;;;;;;;3.95;76.93;94772.19;5049430;28;20040;-71
2022/12/07 01:07:06;;;;;;;33.00;17.77;;;;;;;4.07;76.61;94774.97;5049323;28;20037;-70
2022/12/07 01:09:32;;;;;;;32.38;18.33;;;;;;;4.05;76.74;94784.53;5050208;28;20495;-70
2022/12/07 01:11:57;;;;;;;34.35;16.85;;;;;;;4.06;76.59;94791.31;5052634;28;20037;-70
2022/12/07 01:14:23;;;;;;;22.92;14.05;;;;;;;3.97;76.75;94780.66;5053683;28;20082;-70
2022/12/07 01:16:48;;;;;;;31.88;16.52;;;;;;;3.90;76.98;94774.22;5052528;28;20052;-70
2022/12/07 01:19:14;;;;;;;32.70;16.92;;;;;;;3.73;77.82;94776.91;5036464;28;20056;-70
2022/12/07 01:21:39;;;;;;;25.80;14.57;;;;;;;3.81;77.39;94759.31;5054636;28;20044;-70
2022/12/07 01:24:07;;;;;;;25.65;13.40;;;;;;;3.99;77.17;94773.69;5054589;28;20517;-70
2022/12/07 01:26:32;;;;;;;20.52;11.93;;;;;;;4.08;76.95;94772.31;5054411;28;20044;-70
2022/12/07 01:28:58;;;;;;;21.50;11.50;;;;;;;4.03;76.83;94753.75;5053443;28;20025;-70
2022/12/07 01:31:25;;;;;;;23.95;13.35;;;;;;;4.14;76.61;94761.69;5054843;28;20033;-69
2022/12/07 01:33:55;;;;;;;24.85;12.93;;;;;;;4.06;76.80;94758.72;5054251;28;20043;-70
2022/12/07 01:36:30;;;;;;;21.70;12.77;;;;;;;4.06;76.72;94743.31;5020464;28;20036;-70
2022/12/07 01:39:01;;;;;;;30.00;16.13;;;;;;;4.10;76.60;94764.53;5053107;28;20138;-70
2022/12/07 01:41:31;;;;;;;32.25;18.52;;;;;;;4.08;76.66;94763.78;5053036;28;20040;-70
2022/12/07 01:44:16;;;;;;;27.92;15.63;;;;;;;4.08;76.37;94766.38;5054546;28;20025;-70
2022/12/07 01:46:43;;;;;;;24.33;13.48;;;;;;;4.11;76.22;94769.56;5036188;28;20060;-70
2022/12/07 01:49:12;;;;;;;22.55;11.38;;;;;;;4.07;76.21;94749.25;5036537;28;20028;-70
2022/12/07 01:51:37;;;;;;;18.77;9.70;;;;;;;4.17;75.50;94750.38;5036739;28;20415;-70
2022/12/07 01:54:03;;;;;;;11.90;7.10;;;;;;;4.13;75.43;94752.31;5052818;28;20047;-70
2022/12/07 01:56:28;;;;;;;10.18;6.22;;;;;;;4.06;75.76;94751.00;5052635;28;20052;-70
2022/12/07 01:58:54;;;;;;;11.65;6.45;;;;;;;4.08;76.01;94750.94;5052704;28;20415;-70
2022/12/07 02:01:19;;;;;;;11.20;6.93;;;;;;;4.06;76.13;94750.19;5036358;28;20063;-70
2022/12/07 02:03:45;;;;;;;9.45;6.18;;;;;;;3.85;76.16;94713.72;5053912;28;20033;-70
2022/12/07 02:06:12;;;;;;;10.88;6.20;;;;;;;4.04;76.45;94750.31;5036186;28;20033;-70
2022/12/07 02:08:37;;;;;;;12.10;6.55;;;;;;;4.04;76.22;94745.16;5035979;28;20037;-70
2022/12/07 02:11:03;;;;;;;11.55;6.72;;;;;;;3.99;76.16;94730.00;5054078;28;20040;-70
2022/12/07 02:13:30;;;;;;;10.73;6.35;;;;;;;4.03;76.13;94752.00;5035864;28;20044;-70
2022/12/07 02:15:59;;;;;;;15.68;6.70;;;;;;;4.12;75.93;94749.81;5035869;28;20155;-70
2022/12/07 02:18:27;;;;;;;10.10;6.30;;;;;;;4.07;76.22;94739.84;5053965;28;20025;-70
2022/12/07 02:21:25;;;;;;;15.40;7.93;;;;;;;4.01;76.74;94741.03;5053776;28;20037;-70
2022/12/07 02:23:50;;;;;;;12.77;7.32;;;;;;;4.10;76.55;94749.94;5051273;28;20407;-70
2022/12/07 02:26:44;;;;;;;13.15;7.30;;;;;;;4.08;76.64;94746.63;5053841;28;20025;-70
2022/12/07 02:29:29;;;;;;;17.05;8.18;;;;;;;4.05;76.59;94746.81;5038474;28;20072;-70
2022/12/07 02:32:00;;;;;;;15.10;8.15;;;;;;;4.18;75.87;94745.16;5033005;28;20124;-70
2022/12/07 02:34:29;;;;;;;13.07;7.68;;;;;;;4.17;75.91;94737.53;5031991;28;20423;-70
2022/12/07 02:36:57;;;;;;;13.38;7.78;;;;;;;4.05;76.27;94722.84;5033429;28;20021;-70
2022/12/07 02:39:34;;;;;;;14.82;8.32;;;;;;;4.16;76.32;94739.28;5031972;28;20103;-70
2022/12/07 02:42:03;;;;;;;14.90;7.65;;;;;;;4.08;76.30;94715.78;5032242;28;20029;-70
2022/12/07 02:44:28;;;;;;;13.10;7.28;;;;;;;4.14;76.30;94725.69;5032076;28;20112;-70
2022/12/07 02:46:55;;;;;;;12.45;8.27;;;;;;;4.13;76.00;94718.06;5033585;28;20033;-70
2022/12/07 02:49:23;;;;;;;17.90;9.05;;;;;;;4.13;76.34;94723.22;5027951;28;20037;-70
2022/12/07 02:51:49;;;;;;;15.93;9.30;;;;;;;4.15;76.18;94729.06;5015357;28;20171;-70
2022/12/07 02:54:16;;;;;;;16.55;8.70;;;;;;;4.25;75.97;94728.44;5033058;28;20041;-71
2022/12/07 02:57:04;;;;;;;15.32;9.10;;;;;;;4.27;75.62;94736.09;5031565;28;20133;-69
2022/12/07 02:59:48;;;;;;;13.73;8.15;;;;;;;4.07;76.11;94736.41;5031840;28;20033;-70
2022/12/07 03:02:20;;;;;;;18.63;9.55;;;;;;;4.02;76.13;94727.25;5040700;28;20030;-70
2022/12/07 03:04:45;;;;;;;;;;;;;;;4.05;76.13;94715.13;5042172;28;20048;-70
2022/12/07 03:07:29;;;;;;;21.80;9.82;;;;;;;3.98;76.20;94709.50;5040928;28;20382;-70
2022/12/07 03:10:00;;;;;;;15.00;9.00;;;;;;;3.97;75.99;94713.81;5041371;28;20112;-70
2022/12/07 03:12:30;;;;;;;15.88;9.05;;;;;;;3.93;76.27;94708.97;5040758;28;20036;-70
2022/12/07 03:15:24;;;;;;;18.83;10.60;;;;;;;3.89;76.09;94710.03;5042970;28;20048;-70
2022/12/07 03:17:50;;;;;;;17.65;10.70;;;;;;;3.94;76.22;94713.19;5026931;28;20502;-70
2022/12/07 03:20:17;;;;;;;18.92;9.98;;;;;;;3.87;76.26;94706.72;5031453;28;20040;-70
2022/12/07 03:22:43;;;;;;;18.60;10.45;;;;;;;3.85;75.88;94709.41;5017411;28;20118;-70
2022/12/07 03:25:10;;;;;;;19.27;10.25;;;;;;;3.91;75.41;94714.19;5033631;28;20083;-70
2022/12/07 03:27:39;;;;;;;19.02;11.65;;;;;;;3.86;75.69;94694.81;5017572;28;20548;-70
2022/12/07 03:30:07;;;;;;;18.70;12.60;;;;;;;3.78;75.56;94679.81;5034315;28;20380;-70
2022/12/07 03:32:54;;;;;;;18.63;12.00;;;;;;;3.85;75.69;94698.31;5033725;28;20388;-70
2022/12/07 03:35:30;;;;;;;17.08;11.20;;;;;;;3.80;75.54;94681.41;5030453;28;20044;-70
2022/12/07 03:37:57;;;;;;;13.45;8.23;;;;;;;3.69;75.67;94694.03;5030141;28;20037;-70
2022/12/07 03:40:33;;;;;;;17.00;8.80;;;;;;;3.66;75.49;94699.34;5031547;28;20551;-70
2022/12/07 03:42:59;;;;;;;17.92;11.23;;;;;;;3.53;76.06;94699.22;5030462;28;20120;-70
2022/12/07 03:45:29;;;;;;;30.88;13.82;;;;;;;3.40;76.20;94695.72;5030147;28;20029;-70
2022/12/07 03:48:10;;;;;;;21.85;12.07;;;;;;;3.37;76.15;94698.44;5013608;28;20044;-70
2022/12/07 03:50:47;;;;;;;25.63;13.82;;;;;;;3.47;76.53;94717.56;5030288;28;20026;-70
2022/12/07 03:53:30;;;;;;;34.92;18.15;;;;;;;3.57;76.39;94716.13;5030235;28;20029;-70
2022/12/07 03:55:56;;;;;;;42.38;22.10;;;;;;;3.56;76.56;94709.31;5013402;28;20038;-70
2022/12/07 03:58:21;;;;;;;32.03;17.23;;;;;;;3.54;76.62;94689.81;5030002;28;20030;-70
2022/12/07 04:00:47;;;;;;;20.30;11.80;;;;;;;3.58;76.50;94704.94;5029928;28;20486;-70
2022/12/07 04:03:12;;;;;;;25.33;14.77;;;;;;;3.56;76.61;94704.19;5029825;28;20040;-69
2022/12/07 04:05:38;;;;;;;22.38;13.93;;;;;;;3.36;77.08;94697.59;5031049;28;20487;-70
2022/12/07 04:08:04;;;;;;;21.83;12.93;;;;;;;3.32;77.31;94691.00;5013309;28;20022;-70
2022/12/07 04:10:29;;;;;;;22.08;13.02;;;;;;;3.40;76.92;94689.72;5029470;28;20068;-70
2022/12/07 04:12:55;;;;;;;16.65;10.27;;;;;;;3.41;76.63;94687.09;5030599;28;20037;-70
2022/12/07 04:15:20;;;;;;;18.80;10.88;;;;;;;3.50;76.68;94696.00;5029487;28;20115;-70
2022/12/07 04:17:46;;;;;;;16.42;9.88;;;;;;;3.39;76.93;94695.78;5030693;28;20064;-70
2022/12/07 04:20:12;;;;;;;14.55;8.30;;;;;;;3.34;77.08;94689.19;5030834;28;20030;-70
2022/12/07 04:22:37;;;;;;;15.20;8.35;;;;;;;3.36;76.90;94689.09;5029190;28;20048;-70
2022/12/07 04:25:03;;;;;;;14.95;8.68;;;;;;;3.42;76.70;94687.91;5012741;28;20037;-70
2022/12/07 04:27:29;;;;;;;15.25;9.00;;;;;;;3.44;76.90;94701.50;5029331;28;20463;-70
2022/12/07 04:29:55;;;;;;;16.08;7.75;;;;;;;3.44;76.92;94702.31;5030407;28;20091;-70
2022/12/07 04:32:21;;;;;;;16.05;8.70;;;;;;;3.42;76.89;94700.75;5029056;28;20061;-70
2022/12/07 04:34:46;;;;;;;17.48;9.93;;;;;;;3.49;76.71;94696.94;5029063;28;20034;-70
2022/12/07 04:37:12;;;;;;;19.92;11.25;;;;;;;3.49;76.83;94697.75;5030392;28;20384;-70
2022/12/07 04:39:37;;;;;;;19.10;12.00;;;;;;;3.52;76.84;94712.16;5030294;28;20030;-70
2022/12/07 04:42:03;;;;;;;25.58;14.65;;;;;;;3.36;77.14;94702.75;5030276;28;20034;-70
2022/12/07 04:44:28;;;;;;;25.83;13.70;;;;;;;3.42;77.12;94706.72;5029366;28;20029;-70
2022/12/07 04:46:54;;;;;;;24.27;14.15;;;;;;;3.45;77.41;94696.25;5029460;28;20094;-70
2022/12/07 04:49:19;;;;;;;28.45;15.52;;;;;;;3.41;77.18;94699.94;5013299;28;20515;-70
2022/12/07 04:51:45;;;;;;;35.92;19.00;;;;;;;3.38;77.46;94702.69;5029688;28;20086;-70
2022/12/07 04:54:11;;;;;;;28.60;17.58;;;;;;;3.39;77.44;94699.19;5029792;28;20530;-70
2022/12/07 04:56:36;;;;;;;31.40;17.38;;;;;;;3.34;77.17;94696.91;5013324;28;20463;-70
2022/12/07 04:59:02;;;;;;;28.83;15.43;;;;;;;3.43;77.28;94705.81;5029769;28;20025;-70
2022/12/07 05:01:28;;;;;;;26.10;15.30;;;;;;;3.44;77.20;94716.91;5013433;28;20492;-70
2022/12/07 05:03:53;;;;;;;23.35;13.77;;;;;;;3.48;76.82;94706.38;5013159;28;20026;-70
2022/12/07 05:06:19;;;;;;;25.35;14.23;;;;;;;3.44;77.14;94712.59;5031563;28;20029;-69
2022/12/07 05:08:44;;;;;;;26.85;15.10;;;;;;;3.38;77.08;94714.69;5030143;28;20034;-69
2022/12/07 05:11:37;;;;;;;26.23;16.67;;;;;;;3.30;77.08;94697.97;5013406;28;20419;-70
2022/12/07 05:13:55;;;;;;;28.05;16.40;;;;;;;3.19;77.56;94678.94;5015722;28;20122;-70
2022/12/07 05:16:21;;;;;;;30.08;15.23;;;;;;;3.48;77.12;94716.66;5031145;28;20116;-70
2022/12/07 05:18:46;;;;;;;26.20;13.68;;;;;;;3.40;77.17;94706.00;5029969;28;20064;-70
2022/12/07 05:21:12;;;;;;;39.35;19.98;;;;;;;3.33;77.08;94699.53;5031075;28;20413;-70
2022/12/07 05:23:37;;;;;;;68.18;29.42;;;;;;;3.26;76.94;94690.50;5012902;28;20476;-69
2022/12/07 05:26:03;;;;;;;58.10;27.58;;;;;;;3.36;77.10;94712.19;5031063;28;20045;-69
2022/12/07 05:28:28;;;;;;;40.05;21.88;;;;;;;3.39;76.80;94706.88;5030729;28;20021;-70
2022/12/07 05:30:53;;;;;;;39.05;20.58;;;;;;;3.13;76.88;94665.53;5013043;28;20480;-69
2022/12/07 05:33:19;;;;;;;35.47;18.48;;;;;;;3.32;76.26;94695.31;5033381;28;20021;-70
2022/12/07 05:35:44;;;;;;;24.42;14.98;;;;;;;3.31;76.40;94720.16;5050739;28;20041;-70
2022/12/07 05:38:10;;;;;;;30.25;17.48;;;;;;;3.33;76.48;94717.50;5032658;28;20059;-70
2022/12/07 05:40:36;;;;;;;31.70;16.92;;;;;;;3.24;76.43;94708.59;5032637;28;20029;-70
2022/12/07 05:43:02;;;;;;;22.63;13.32;;;;;;;3.24;76.42;94720.59;5049114;28;20032;-70
2022/12/07 05:45:27;;;;;;;33.20;15.75;;;;;;;3.21;76.56;94713.06;5049344;28;20040;-70
2022/12/07 05:47:52;;;;;;;27.73;14.18;;;;;;;3.16;76.52;94707.34;5049080;28;20067;-70
2022/12/07 05:50:18;;;;;;;27.92;14.02;;;;;;;3.25;76.66;94714.53;5050216;28;20033;-71
2022/12/07 05:52:43;;;;;;;29.45;14.88;;;;;;;3.21;77.49;94687.41;5045950;28;20040;-70
2022/12/07 05:55:09;;;;;;;34.53;17.02;;;;;;;3.21;77.79;94687.41;5035685;28;20487;-70
2022/12/07 05:57:34;;;;;;;36.60;19.42;;;;;;;3.35;78.06;94705.41;5048685;28;20419;-70
2022/12/07 06:00:00;;;;;;;33.35;18.63;;;;;;;3.41;77.51;94705.06;5035424;28;20246;-70
2022/12/07 06:02:25;;;;;;;43.15;21.95;;;;;;;3.38;77.55;94699.28;5047199;28;20037;-70
2022/12/07 06:04:51;;;;;;;57.33;35.05;;;;;;;3.32;77.70;94700.47;5046169;28;20519;-71
2022/12/07 06:07:16;;;;;;;54.38;35.08;;;;;;;3.31;77.50;94699.59;5033507;28;20076;-70
2022/12/07 06:09:42;;;;;;;74.53;45.55;;;;;;;3.35;77.44;94693.41;5032586;28;20048;-70
2022/12/07 06:14:56;;;;;;;47.72;28.85;;;;;;;3.51;77.01;94706.22;5053528;28;20056;-71
2022/12/07 06:17:21;;;;;;;52.45;28.20;;;;;;;3.48;77.17;94706.38;5035145;28;20108;-70
2022/12/07 06:19:47;;;;;;;37.05;19.52;;;;;;;3.40;77.33;94711.13;5035072;28;20033;-70
2022/12/07 06:22:13;;;;;;;38.55;20.38;;;;;;;3.27;77.62;94698.13;5052787;28;20384;-70
2022/12/07 06:24:38;;;;;;;38.67;20.30;;;;;;;3.37;77.29;94701.00;5051518;28;20074;-70
2022/12/07 06:27:04;;;;;;;39.65;21.38;;;;;;;3.41;77.45;94705.06;5034030;28;20150;-70
2022/12/07 06:29:30;;;;;;;42.50;21.08;;;;;;;3.34;77.84;94707.16;5033583;28;20036;-70
2022/12/07 06:31:55;;;;;;;33.35;19.40;;;;;;;3.48;77.82;94715.81;5049983;28;20025;-70
2022/12/07 06:34:22;;;;;;;34.58;20.55;;;;;;;3.54;77.46;94712.91;5039827;28;20042;-71
2022/12/07 06:36:51;;;;;;;33.60;20.70;;;;;;;3.42;77.81;94701.56;5032029;28;20435;-70
2022/12/07 06:39:17;;;;;;;34.45;19.88;;;;;;;3.68;77.43;94714.69;4998613;28;20113;-70
2022/12/07 06:41:42;;;;;;;32.67;19.90;;;;;;;3.53;77.30;94680.41;5030938;28;20025;-70
2022/12/07 06:44:08;;;;;;;33.72;19.55;;;;;;;3.75;77.56;94721.13;5033710;28;20408;-70
2022/12/07 06:46:35;;;;;;;50.50;29.15;;;;;;;3.77;77.92;94716.72;5033786;28;20087;-70
2022/12/07 06:49:00;;;;;;;81.18;44.85;;;;;;;3.79;78.04;94714.91;5033534;28;20025;-70
2022/12/07 06:51:26;;;;;;;78.43;44.35;;;;;;;3.78;78.14;94721.75;5046581;28;20584;-70
2022/12/07 06:53:51;;;;;;;152.95;78.57;;;;;;;3.90;78.18;94720.25;5051722;28;20033;-70
2022/12/07 06:56:16;;;;;;;134.07;70.53;;;;;;;3.96;78.04;94721.63;5051468;28;20463;-70
2022/12/07 06:58:42;;;;;;;111.85;59.40;;;;;;;4.09;77.57;94714.03;5053082;28;20048;-70
2022/12/07 07:01:14;;;;;;;110.28;59.65;;;;;;;4.09;77.38;94706.31;5053259;28;20071;-70
2022/12/07 07:03:40;;;;;;;88.25;46.78;;;;;;;4.16;77.49;94717.91;5035243;28;20043;-70
2022/12/07 07:06:06;;;;;;;87.32;44.75;;;;;;;4.14;77.61;94714.56;5053089;28;20059;-70
2022/12/07 07:08:31;;;;;;;80.80;40.88;;;;;;;4.21;77.90;94727.00;5052495;28;20037;-70
2022/12/07 07:10:56;;;;;;;79.18;45.10;;;;;;;4.21;78.08;94721.84;5051430;28;20048;-70
2022/12/07 07:13:22;;;;;;;69.72;39.83;;;;;;;4.15;77.90;94696.50;5051579;28;20029;-70
2022/12/07 07:15:47;;;;;;;56.90;30.90;;;;;;;4.36;77.75;94714.94;5052775;28;20495;-70
2022/12/07 07:18:13;;;;;;;42.95;23.08;;;;;;;4.40;77.90;94725.88;5034716;28;20036;-70
2022/12/07 07:20:38;;;;;;;38.42;21.60;;;;;;;4.54;77.67;94733.63;5052790;28;20032;-70
2022/12/07 07:23:04;;;;;;;36.00;22.30;;;;;;;4.57;77.78;94719.72;5052500;28;20033;-71
2022/12/07 07:25:29;;;;;;;37.90;19.17;;;;;;;4.58;77.85;94721.38;5051295;28;20032;-70
2022/12/07 07:27:55;;;;;;;33.13;17.80;;;;;;;4.68;77.25;94723.31;5051204;28;20479;-69
2022/12/07 07:30:20;;;;;;;26.50;16.08;;;;;;;4.73;76.53;94710.13;5034612;28;20055;-70
2022/12/07 07:32:46;;;;;;;28.63;16.02;;;;;;;4.84;76.36;94730.88;5051241;28;20445;-70
2022/12/07 07:35:12;;;;;;;29.90;17.55;;;;;;;4.92;76.07;94738.16;5032725;28;20038;-70
2022/12/07 07:37:37;;;;;;;34.78;20.02;;;;;;;4.97;75.91;94738.69;5014642;28;20025;-71
2022/12/07 07:40:03;;;;;;;42.70;23.90;;;;;;;5.00;75.84;94738.50;5032507;28;20030;-70
2022/12/07 07:42:29;;;;;;;45.22;23.70;;;;;;;5.05;76.07;94736.47;5046388;28;20029;-70
2022/12/07 07:44:54;;;;;;;46.70;22.75;;;;;;;5.07;76.03;94736.38;5034336;28;20043;-71
2022/12/07 07:47:19;;;;;;;39.40;22.33;;;;;;;5.08;75.76;94735.47;5050615;28;20060;-70
2022/12/07 07:49:45;;;;;;;44.75;21.30;;;;;;;5.17;75.64;94739.19;5051866;28;20033;-70
2022/12/07 07:52:10;;;;;;;81.88;34.28;;;;;;;5.14;75.88;94742.78;5045750;28;20480;-70
2022/12/07 07:54:36;;;;;;;62.78;27.55;;;;;;;5.17;75.97;94732.28;5033094;28;20037;-71
2022/12/07 07:57:01;;;;;;;50.03;26.17;;;;;;;5.29;75.81;94718.66;5042305;28;20038;-70
2022/12/07 07:59:27;;;;;;;43.67;23.35;;;;;;;5.32;76.17;94709.88;5027103;28;20032;-70
2022/12/07 08:01:52;;;;;;;43.92;24.30;;;;;;;5.42;76.16;94731.56;5050738;28;20051;-70
2022/12/07 08:04:18;;;;;;;44.17;23.48;;;;;;;5.58;75.85;94731.44;5031194;28;20044;-70
2022/12/07 08:06:43;;;;;;;44.67;24.85;;;;;;;5.61;75.71;94726.06;5038793;28;20037;-70
2022/12/07 08:09:09;;;;;;;45.58;23.25;;;;;;;5.70;74.92;94714.34;5051865;28;20044;-72
2022/12/07 08:11:36;;;;;;;44.92;24.27;;;;;;;5.79;74.86;94729.19;5033953;28;20036;-70
2022/12/07 08:14:01;;;;;;;52.88;25.73;;;;;;;5.67;74.33;94699.88;5051525;28;20025;-70
2022/12/07 08:16:26;;;;;;;39.15;22.27;;;;;;;5.88;74.92;94727.75;5048104;28;20061;-71
2022/12/07 08:18:52;;;;;;;35.85;21.40;;;;;;;5.86;74.56;94714.16;5037833;28;20041;-70
2022/12/07 08:21:17;;;;;;;38.90;20.52;;;;;;;6.02;74.23;94725.16;5045586;28;20036;-70
2022/12/07 08:23:43;;;;;;;39.95;20.58;;;;;;;6.15;73.42;94728.53;5036726;28;20025;-70
2022/12/07 08:26:13;;;;;;;34.85;18.73;;;;;;;6.09;73.17;94708.31;5041134;28;20028;-70
2022/12/07 08:28:39;;;;;;;34.72;18.08;;;;;;;6.29;72.01;94721.66;5049912;28;20029;-70
2022/12/07 08:31:10;;;;;;;32.97;18.08;;;;;;;6.30;71.03;94713.00;5042943;28;20098;-71
2022/12/07 08:33:35;;;;;;;;;;;;;;;6.21;71.63;94714.41;5014297;28;20033;-70
2022/12/07 08:36:05;;;;;;;34.08;17.30;;;;;;;6.04;71.99;94702.66;5033310;28;19921;-70
2022/12/07 08:38:31;;;;;;;33.92;19.08;;;;;;;6.17;71.84;94716.38;5041943;28;20094;-70
2022/12/07 08:40:57;;;;;;;33.28;17.90;;;;;;;6.25;71.76;94697.81;5038852;28;20033;-72
2022/12/07 08:43:22;;;;;;;55.65;23.90;;;;;;;6.39;72.08;94709.78;5037161;28;20031;-70
2022/12/07 08:45:49;;;;;;;42.38;21.35;;;;;;;6.47;71.81;94710.09;5014305;28;20535;-69
2022/12/07 08:48:17;;;;;;;35.60;18.73;;;;;;;6.57;70.43;94705.09;5022214;28;20037;-70
2022/12/07 08:50:42;;;;;;;34.33;18.85;;;;;;;6.65;70.16;94708.81;5014586;28;20151;-69
2022/12/07 08:53:08;;;;;;;33.80;18.73;;;;;;;6.69;70.23;94702.50;5029687;28;20056;-69
2022/12/07 08:55:33;;;;;;;30.38;18.33;;;;;;;6.77;70.44;94714.91;5035241;28;20045;-69
2022/12/07 08:57:59;;;;;;;36.67;18.45;;;;;;;6.64;70.15;94709.75;5031806;28;20052;-69
2022/12/07 09:00:25;;;;;;;30.23;16.90;;;;;;;6.47;70.39;94705.75;5048281;28;20033;-69
2022/12/07 09:02:51;;;;;;;32.75;18.42;;;;;;;6.35;70.50;94690.25;5048700;28;20068;-69
2022/12/07 09:05:16;;;;;;;34.65;17.75;;;;;;;6.52;70.64;94691.69;5047571;28;20037;-69
2022/12/07 09:07:45;;;;;;;28.70;17.10;;;;;;;6.65;70.43;94703.63;5047541;28;20028;-69
2022/12/07 09:10:11;;;;;;;36.15;18.00;;;;;;;6.71;70.51;94698.09;5047486;28;20502;-69
2022/12/07 09:12:36;;;;;;;29.17;16.83;;;;;;;6.67;70.77;94688.88;5047842;28;20021;-69
2022/12/07 09:15:02;;;;;;;32.22;17.35;;;;;;;6.56;70.94;94672.50;5031713;28;20481;-69
2022/12/07 09:17:27;;;;;;;34.78;17.30;;;;;;;6.63;71.02;94678.88;5032847;28;20025;-69
2022/12/07 09:19:53;;;;;;;30.88;18.85;;;;;;;6.75;70.51;94683.19;5049673;28;20222;-69
2022/12/07 09:22:18;;;;;;;32.20;18.65;;;;;;;6.89;70.38;94687.41;5050556;28;20021;-69
2022/12/07 09:24:45;;;;;;;33.88;18.67;;;;;;;6.82;70.48;94673.25;5050655;28;20041;-69
2022/12/07 09:27:11;;;;;;;36.33;20.70;;;;;;;6.85;70.07;94673.03;5050545;28;20509;-69
2022/12/07 09:29:36;;;;;;;34.05;19.42;;;;;;;6.47;70.60;94661.88;5050508;28;20037;-69
2022/12/07 09:32:02;;;;;;;34.17;18.10;;;;;;;6.37;71.45;94675.50;5050568;28;20051;-69
2022/12/07 09:34:30;;;;;;;35.85;18.58;;;;;;;6.50;71.13;94660.84;5054607;28;20033;-69
2022/12/07 09:36:56;;;;;;;34.70;18.90;;;;;;;6.67;70.82;94663.06;5036749;28;20462;-70
2022/12/07 09:39:22;;;;;;;38.65;21.13;;;;;;;6.77;71.04;94668.44;5053221;28;20029;-69
2022/12/07 09:41:47;;;;;;;33.25;19.95;;;;;;;6.91;70.31;94662.28;5054508;28;20045;-69
2022/12/07 09:44:18;;;;;;;32.65;19.75;;;;;;;6.97;70.13;94656.69;5054434;28;20036;-69
2022/12/07 09:46:43;;;;;;;34.47;19.27;;;;;;;6.87;70.00;94655.69;5020805;28;20128;-69
2022/12/07 09:49:18;;;;;;;34.75;18.92;;;;;;;6.89;69.61;94646.91;5036511;28;20048;-69
2022/12/07 09:51:44;;;;;;;37.13;19.83;;;;;;;6.92;69.99;94651.03;5037492;28;20403;-69
2022/12/07 09:54:13;;;;;;;40.60;19.77;;;;;;;6.92;70.43;94644.09;5036424;28;20033;-70
2022/12/07 09:56:38;;;;;;;38.05;19.33;;;;;;;7.01;69.84;94642.59;5052970;28;20049;-69
2022/12/07 09:59:04;;;;;;;34.70;20.30;;;;;;;7.04;70.11;94646.72;5053020;28;20036;-69
2022/12/07 10:01:31;;;;;;;35.60;19.80;;;;;;;7.01;69.82;94640.03;5036517;28;20487;-69
2022/12/07 10:04:18;;;;;;;36.38;19.80;;;;;;;7.13;69.37;94641.75;5054183;28;20146;-70
2022/12/07 10:06:43;;;;;;;31.42;19.10;;;;;;;7.15;69.38;94644.19;5053819;28;20574;-69
2022/12/07 10:09:13;;;;;;;32.83;18.00;;;;;;;7.20;69.46;94639.53;5052801;28;20028;-71
2022/12/07 10:12:08;;;;;;;30.95;18.38;;;;;;;7.26;69.33;94630.50;5036477;28;20025;-69
2022/12/07 10:14:35;;;;;;;34.70;20.63;;;;;;;7.29;69.10;94628.53;5053724;28;20044;-69
2022/12/07 10:17:01;;;;;;;37.40;19.80;;;;;;;7.21;68.92;94617.09;5035765;28;20036;-69
2022/12/07 10:19:28;;;;;;;33.95;18.98;;;;;;;7.08;69.59;94623.16;5052347;28;20024;-69
2022/12/07 10:22:10;;;;;;;32.45;20.02;;;;;;;7.20;69.69;94618.88;5035954;28;20108;-69
2022/12/07 10:24:39;;;;;;;36.20;20.73;;;;;;;7.25;69.86;94606.44;5053541;28;20059;-69
2022/12/07 10:27:05;;;;;;;38.25;19.35;;;;;;;6.99;69.81;94608.31;5052291;28;20072;-69
2022/12/07 10:29:37;;;;;;;32.03;18.20;;;;;;;7.16;69.92;94607.94;5035782;28;20120;-69
2022/12/07 10:32:05;;;;;;;30.75;17.15;;;;;;;7.51;69.00;94601.94;5036556;28;20510;-69
2022/12/07 10:34:35;;;;;;;34.17;18.63;;;;;;;7.58;68.54;94595.38;5052062;28;20028;-69
2022/12/07 10:37:12;;;;;;;36.67;19.85;;;;;;;7.80;69.12;94604.09;5035693;28;20025;-69
2022/12/07 10:39:52;;;;;;;34.03;19.48;;;;;;;7.89;68.84;94594.84;5053294;28;20041;-69
2022/12/07 10:42:24;;;;;;;33.25;18.90;;;;;;;8.00;66.84;94574.97;5035521;28;20021;-69
2022/12/07 10:45:07;;;;;;;32.17;17.77;;;;;;;8.15;66.84;94582.50;5035182;28;20044;-69
2022/12/07 10:47:46;;;;;;;28.67;17.70;;;;;;;8.22;66.02;94588.88;5052018;28;20074;-69
2022/12/07 10:50:36;;;;;;;34.15;17.73;;;;;;;8.30;65.84;94578.72;5053264;28;20485;-69
2022/12/07 10:53:20;;;;;;;27.25;16.25;;;;;;;8.37;65.31;94587.66;5051996;28;20024;-69
2022/12/07 10:56:21;;;;;;;31.05;18.08;;;;;;;8.35;65.62;94579.19;5053118;28;20048;-69
2022/12/07 10:59:05;;;;;;;30.20;16.88;;;;;;;8.44;65.42;94578.53;5048200;28;20103;-69
2022/12/07 11:01:46;;;;;;;31.70;17.05;;;;;;;8.34;66.14;94569.78;5053319;28;20037;-69
2022/12/07 11:04:23;;;;;;;31.77;18.05;;;;;;;8.32;65.89;94563.91;5036517;28;20029;-69
2022/12/07 11:07:42;;;;;;;28.88;17.05;;;;;;;8.44;65.65;94551.78;5035628;28;20052;-69
2022/12/07 11:10:20;;;;;;;28.80;16.10;;;;;;;8.35;65.40;94548.13;5050492;28;20033;-69
2022/12/07 11:13:17;;;;;;;28.02;16.02;;;;;;;8.24;65.35;94551.53;5049087;28;20048;-69
2022/12/07 11:16:12;;;;;;;31.63;16.33;;;;;;;8.28;65.63;94546.97;5051624;28;20024;-69
2022/12/07 11:18:46;;;;;;;30.45;16.10;;;;;;;8.37;65.30;94554.00;5046644;28;20137;-69
2022/12/07 11:21:30;;;;;;;40.78;24.17;;;;;;;8.45;65.31;94543.09;5051450;28;20029;-69
2022/12/07 11:24:20;;;;;;;31.55;19.38;;;;;;;8.47;65.13;94542.03;5018491;28;20503;-69
2022/12/07 11:27:04;;;;;;;29.85;16.33;;;;;;;8.54;65.00;94542.38;5051199;28;20510;-69
2022/12/07 11:29:46;;;;;;;33.00;19.05;;;;;;;8.58;64.87;94532.56;5052576;28;20503;-69
2022/12/07 11:32:32;;;;;;;30.13;19.73;;;;;;;8.58;64.51;94537.75;5052350;28;20036;-69
2022/12/07 11:35:16;;;;;;;26.90;15.98;;;;;;;8.59;64.77;94535.06;5052336;28;20079;-69
2022/12/07 11:37:42;;;;;;;30.48;20.08;;;;;;;8.57;64.42;94512.81;5052154;28;20033;-69